Time;durP1;ratioP1;P1;durP2;ratioP2;P2;SDS_P1;SDS_P2;PMS_P1;PMS_P2;Temp;Humidity;BMP_temperature;BMP_pressure;BME280_temperature;BME280_humidity;BME280_pressure;Samples;Min_cycle;Max_cycle;Signal;HPM_P1;HPM_P2
2022/03/27 00:00:35;;;;;;;18.47;12.30;;;9.20;99.90;;;;;;5055766;28;20171;-63
2022/03/27 00:03:01;;;;;;;23.53;13.40;;;9.00;99.90;;;;;;5055690;28;20576;-63
2022/03/27 00:05:27;;;;;;;18.63;12.83;;;8.80;99.90;;;;;;5055494;28;20198;-63
2022/03/27 00:07:52;;;;;;;20.43;14.03;;;8.70;99.90;;;;;;5054331;28;20704;-63
2022/03/27 00:10:18;;;;;;;21.07;13.77;;;8.60;99.90;;;;;;5055249;28;20237;-63
2022/03/27 00:12:44;;;;;;;19.97;13.63;;;8.50;99.90;;;;;;5055479;28;20250;-64
2022/03/27 00:15:10;;;;;;;19.40;13.23;;;8.50;99.90;;;;;;5055241;28;20171;-63
2022/03/27 00:17:37;;;;;;;20.07;13.67;;;8.50;99.90;;;;;;5055110;28;20174;-63
2022/03/27 00:20:05;;;;;;;24.80;14.67;;;8.50;99.90;;;;;;5055278;28;20166;-63
2022/03/27 00:22:31;;;;;;;22.97;13.77;;;8.60;99.90;;;;;;5054091;28;20182;-65
2022/03/27 00:24:58;;;;;;;18.33;12.57;;;8.50;99.90;;;;;;5055800;28;20171;-62
2022/03/27 00:27:23;;;;;;;19.27;13.77;;;8.50;99.90;;;;;;5063850;28;20308;-63
2022/03/27 00:29:50;;;;;;;21.03;13.63;;;8.50;99.90;;;;;;5055103;28;20710;-63
2022/03/27 00:32:16;;;;;;;20.90;13.40;;;8.60;99.90;;;;;;5054863;28;20174;-63
2022/03/27 00:34:42;;;;;;;20.93;13.43;;;8.60;99.90;;;;;;5055301;28;20163;-63
2022/03/27 00:37:08;;;;;;;20.23;13.70;;;8.60;99.90;;;;;;5053860;28;20277;-63
2022/03/27 00:39:33;;;;;;;18.17;13.03;;;8.60;99.90;;;;;;5055468;28;20273;-62
2022/03/27 00:41:59;;;;;;;22.00;13.53;;;8.50;99.90;;;;;;5055189;28;20545;-63
2022/03/27 00:44:25;;;;;;;20.53;13.67;;;8.50;99.90;;;;;;5055003;28;20171;-62
2022/03/27 00:46:50;;;;;;;18.70;12.53;;;8.50;99.90;;;;;;5054465;28;20195;-63
2022/03/27 00:49:16;;;;;;;17.40;12.47;;;8.40;99.90;;;;;;5055080;28;20586;-63
2022/03/27 00:51:42;;;;;;;18.60;12.47;;;8.40;99.90;;;;;;5054928;28;20536;-62
2022/03/27 00:54:08;;;;;;;19.50;13.70;;;8.50;99.90;;;;;;5054641;28;20178;-63
2022/03/27 00:56:34;;;;;;;20.30;13.67;;;8.40;99.90;;;;;;5062819;28;20229;-63
2022/03/27 00:58:59;;;;;;;19.57;12.97;;;8.40;99.90;;;;;;5055026;28;20541;-63
2022/03/27 01:01:39;;;;;;;17.57;13.00;;;8.30;99.90;;;;;;5054249;28;20174;-62
2022/03/27 01:04:07;;;;;;;24.17;13.77;;;8.30;99.90;;;;;;5054822;28;20176;-63
2022/03/27 01:06:38;;;;;;;23.97;14.77;;;8.30;99.90;;;;;;5054432;28;20193;-63
2022/03/27 01:11:51;;;;;;;17.23;12.60;;;8.30;99.90;;;;;;5054327;28;20205;-63
2022/03/27 01:14:47;;;;;;;18.53;11.87;;;8.30;99.90;;;;;;5053093;28;20179;-63
2022/03/27 01:17:21;;;;;;;24.00;13.60;;;8.30;99.90;;;;;;5053379;28;20217;-63
2022/03/27 01:19:49;;;;;;;21.23;13.20;;;8.20;99.90;;;;;;5054678;28;20170;-63
2022/03/27 01:22:16;;;;;;;23.13;14.00;;;8.10;99.90;;;;;;5054219;28;20166;-62
2022/03/27 01:24:43;;;;;;;20.13;13.77;;;8.00;99.90;;;;;;5054216;28;20575;-62
2022/03/27 01:27:09;;;;;;;26.10;15.17;;;7.90;99.90;;;;;;5062956;28;20225;-62
2022/03/27 01:29:35;;;;;;;26.07;14.23;;;7.80;99.90;;;;;;5053236;28;20179;-62
2022/03/27 01:32:03;;;;;;;22.50;14.87;;;7.80;99.90;;;;;;5054789;28;20670;-62
2022/03/27 01:34:29;;;;;;;20.50;14.13;;;7.70;99.90;;;;;;5054760;28;20175;-63
2022/03/27 01:36:55;;;;;;;20.23;13.40;;;7.70;99.90;;;;;;5053904;28;20194;-64
2022/03/27 01:39:21;;;;;;;25.40;14.43;;;7.60;99.90;;;;;;5054091;28;20174;-62
2022/03/27 01:41:47;;;;;;;22.77;14.50;;;7.50;99.90;;;;;;5053956;28;20717;-63
2022/03/27 01:44:15;;;;;;;23.57;14.53;;;7.50;99.90;;;;;;5054113;28;20191;-63
2022/03/27 01:46:43;;;;;;;22.43;14.57;;;7.40;99.90;;;;;;5053499;28;20190;-63
2022/03/27 01:49:10;;;;;;;22.37;14.50;;;7.40;99.90;;;;;;5054250;28;20171;-62
2022/03/27 01:51:37;;;;;;;19.90;14.40;;;7.30;99.90;;;;;;5053532;28;20535;-62
2022/03/27 01:54:04;;;;;;;20.63;14.13;;;7.30;99.90;;;;;;5053831;28;20174;-63
2022/03/27 01:56:30;;;;;;;23.90;14.03;;;7.30;99.90;;;;;;5061260;28;20198;-63
2022/03/27 01:58:56;;;;;;;23.10;14.20;;;7.40;99.90;;;;;;5054589;28;20571;-62
2022/03/27 02:01:22;;;;;;;20.57;13.63;;;7.40;99.90;;;;;;5053426;28;20196;-63
2022/03/27 02:03:49;;;;;;;21.27;13.47;;;7.40;99.90;;;;;;5053431;28;20179;-63
2022/03/27 02:06:16;;;;;;;21.17;14.60;;;7.30;99.90;;;;;;5053353;28;20243;-63
2022/03/27 02:08:42;;;;;;;21.40;14.20;;;7.30;99.90;;;;;;5053504;28;20265;-62
2022/03/27 02:11:09;;;;;;;21.30;13.93;;;7.20;99.90;;;;;;5053268;28;20292;-62
2022/03/27 02:13:35;;;;;;;19.57;13.37;;;7.20;99.90;;;;;;5053427;28;20177;-62
2022/03/27 02:16:03;;;;;;;21.43;13.43;;;7.20;99.90;;;;;;5053057;28;20240;-61
2022/03/27 02:18:29;;;;;;;19.93;13.57;;;7.30;99.90;;;;;;5053451;28;20167;-63
2022/03/27 02:20:56;;;;;;;19.50;12.97;;;7.30;99.90;;;;;;5053374;28;20174;-62
2022/03/27 02:23:23;;;;;;;18.20;13.03;;;7.30;99.90;;;;;;5053583;28;20174;-62
2022/03/27 02:25:50;;;;;;;21.00;13.70;;;7.30;99.90;;;;;;5055177;28;20279;-62
2022/03/27 02:28:16;;;;;;;20.77;13.37;;;7.30;99.90;;;;;;5063459;28;20769;-62
2022/03/27 02:30:42;;;;;;;19.30;13.57;;;7.30;99.90;;;;;;5057188;28;20285;-63
2022/03/27 02:33:09;;;;;;;22.97;14.07;;;7.20;99.90;;;;;;5057037;28;20185;-62
2022/03/27 02:35:35;;;;;;;19.33;13.57;;;7.10;99.90;;;;;;5057205;28;20199;-63
2022/03/27 02:38:05;;;;;;;20.23;14.60;;;7.00;99.90;;;;;;5057468;28;20181;-63
2022/03/27 02:40:39;;;;;;;21.53;13.43;;;7.00;99.90;;;;;;5057565;28;20162;-62
2022/03/27 02:43:05;;;;;;;20.97;14.17;;;7.10;99.90;;;;;;5057292;28;20171;-62
2022/03/27 02:45:32;;;;;;;24.07;14.10;;;7.10;99.90;;;;;;5057530;28;20194;-62
2022/03/27 02:47:58;;;;;;;21.83;14.20;;;7.10;99.90;;;;;;5056840;28;20202;-62
2022/03/27 02:50:26;;;;;;;19.70;14.00;;;7.10;99.90;;;;;;5056866;28;20198;-63
2022/03/27 02:52:52;;;;;;;21.20;13.40;;;7.10;99.90;;;;;;5057194;28;20188;-63
2022/03/27 02:55:19;;;;;;;20.57;13.37;;;7.00;99.90;;;;;;5057071;28;20780;-62
2022/03/27 02:57:45;;;;;;;20.93;14.07;;;6.90;99.90;;;;;;5065492;28;20174;-62
2022/03/27 03:00:12;;;;;;;22.73;14.27;;;6.90;99.90;;;;;;5056741;28;20227;-62
2022/03/27 03:02:38;;;;;;;22.17;14.17;;;6.90;99.90;;;;;;5056491;28;20178;-63
2022/03/27 03:05:07;;;;;;;31.67;14.63;;;6.90;99.90;;;;;;5056561;28;20666;-63
2022/03/27 03:07:35;;;;;;;23.90;14.10;;;6.90;99.90;;;;;;5056684;28;20175;-62
2022/03/27 03:10:02;;;;;;;19.87;13.33;;;7.00;99.90;;;;;;5056404;28;20195;-63
2022/03/27 03:12:28;;;;;;;19.63;13.93;;;7.10;99.90;;;;;;5057089;28;20170;-63
2022/03/27 03:14:56;;;;;;;19.77;14.03;;;7.10;99.90;;;;;;5056571;28;20602;-63
2022/03/27 03:17:22;;;;;;;24.30;13.83;;;7.10;99.90;;;;;;5056304;28;20186;-63
2022/03/27 03:19:49;;;;;;;19.73;13.20;;;7.20;99.90;;;;;;5056470;28;20178;-62
2022/03/27 03:22:15;;;;;;;26.07;13.97;;;7.20;99.90;;;;;;5056794;28;20185;-63
2022/03/27 03:24:41;;;;;;;19.00;13.43;;;7.20;99.90;;;;;;5056567;28;20258;-63
2022/03/27 03:27:06;;;;;;;22.60;14.07;;;7.20;99.90;;;;;;5064871;28;20201;-62
2022/03/27 03:29:33;;;;;;;19.40;13.67;;;7.30;99.90;;;;;;5056507;28;20178;-62
2022/03/27 03:31:59;;;;;;;19.67;13.00;;;7.40;99.90;;;;;;5056077;28;20230;-62
2022/03/27 03:34:25;;;;;;;20.53;14.13;;;7.50;99.90;;;;;;5056239;28;20178;-63
2022/03/27 03:36:50;;;;;;;23.70;14.53;;;7.60;99.90;;;;;;5055998;28;20190;-62
2022/03/27 03:39:16;;;;;;;17.23;13.03;;;7.60;99.90;;;;;;5055401;28;20197;-62
2022/03/27 03:41:42;;;;;;;18.53;12.67;;;7.70;99.90;;;;;;5056373;28;20243;-62
2022/03/27 03:44:07;;;;;;;19.93;14.13;;;7.70;99.90;;;;;;5056036;28;20665;-63
2022/03/27 03:46:33;;;;;;;21.20;13.70;;;7.70;99.90;;;;;;5054395;28;20198;-63
2022/03/27 03:48:59;;;;;;;19.40;13.47;;;7.70;99.90;;;;;;5055882;28;20178;-63
2022/03/27 03:51:25;;;;;;;21.90;14.53;;;7.70;99.90;;;;;;5056063;28;20267;-63
2022/03/27 03:53:51;;;;;;;22.80;14.30;;;7.80;99.90;;;;;;5055809;28;20210;-63
2022/03/27 03:56:17;;;;;;;19.43;12.37;;;7.80;99.90;;;;;;5061325;28;20202;-62
2022/03/27 03:58:42;;;;;;;19.67;12.57;;;7.80;99.90;;;;;;5058667;28;20182;-63
2022/03/27 04:01:08;;;;;;;17.70;11.80;;;7.80;99.90;;;;;;5055994;28;20623;-62
2022/03/27 04:03:34;;;;;;;16.67;12.13;;;7.80;99.90;;;;;;5054125;28;20178;-62
2022/03/27 04:05:59;;;;;;;17.57;11.90;;;7.80;99.90;;;;;;5055761;28;20675;-62
2022/03/27 04:08:25;;;;;;;17.03;12.27;;;7.80;99.90;;;;;;5055464;28;20228;-62
2022/03/27 04:10:51;;;;;;;19.57;12.60;;;7.80;99.90;;;;;;5055294;28;20222;-62
2022/03/27 04:13:17;;;;;;;16.93;12.33;;;7.90;99.90;;;;;;5055341;28;20166;-62
2022/03/27 04:15:43;;;;;;;17.10;12.53;;;7.90;99.90;;;;;;5055750;28;20222;-62
2022/03/27 04:18:09;;;;;;;17.97;12.93;;;7.90;99.90;;;;;;5055328;28;20233;-62
2022/03/27 04:20:35;;;;;;;21.03;13.57;;;7.90;99.90;;;;;;5055681;28;20229;-63
2022/03/27 04:23:01;;;;;;;17.03;13.07;;;7.90;99.90;;;;;;5055246;28;20678;-62
2022/03/27 04:25:27;;;;;;;18.80;12.97;;;7.80;99.90;;;;;;5055114;28;20201;-62
2022/03/27 04:27:53;;;;;;;18.77;13.13;;;7.80;99.90;;;;;;5063801;28;20178;-63
2022/03/27 04:30:20;;;;;;;16.30;12.50;;;7.80;99.90;;;;;;5055008;28;20209;-62
2022/03/27 04:32:47;;;;;;;19.33;11.30;;;7.80;99.90;;;;;;5054864;28;20177;-63
2022/03/27 04:35:14;;;;;;;18.13;13.10;;;7.70;99.90;;;;;;5054969;28;20197;-62
2022/03/27 04:37:41;;;;;;;18.37;12.60;;;7.70;99.90;;;;;;5054980;28;20560;-63
2022/03/27 04:40:09;;;;;;;19.77;13.83;;;7.70;99.90;;;;;;5055150;28;20178;-63
2022/03/27 04:42:34;;;;;;;16.23;13.27;;;7.70;99.90;;;;;;5054618;28;20300;-62
2022/03/27 04:45:00;;;;;;;21.17;13.50;;;7.70;99.90;;;;;;5053434;28;20673;-62
2022/03/27 04:47:26;;;;;;;18.20;13.67;;;7.80;99.90;;;;;;5054721;28;20183;-63
2022/03/27 04:49:52;;;;;;;23.17;12.90;;;7.70;99.90;;;;;;5053883;28;20167;-62
2022/03/27 04:52:17;;;;;;;19.13;12.67;;;7.80;99.90;;;;;;5054534;28;20218;-62
2022/03/27 04:54:43;;;;;;;20.53;13.90;;;7.80;99.90;;;;;;5054541;28;20202;-62
2022/03/27 04:57:09;;;;;;;17.23;13.43;;;7.90;99.90;;;;;;5063116;28;20285;-62
2022/03/27 04:59:35;;;;;;;18.50;13.90;;;7.90;99.90;;;;;;5053194;28;20643;-62
2022/03/27 05:02:01;;;;;;;20.63;13.80;;;7.90;99.90;;;;;;5054165;28;20307;-62
2022/03/27 05:04:27;;;;;;;23.77;16.57;;;8.00;99.90;;;;;;5054374;28;20175;-63
2022/03/27 05:06:53;;;;;;;29.03;18.53;;;8.10;99.90;;;;;;5054302;28;20268;-64
2022/03/27 05:09:19;;;;;;;35.27;22.63;;;8.20;99.90;;;;;;5054197;28;20193;-62
2022/03/27 05:11:49;;;;;;;32.10;21.43;;;8.30;99.90;;;;;;5054781;28;20553;-62
2022/03/27 05:14:15;;;;;;;34.23;21.47;;;8.40;99.90;;;;;;5054270;28;20575;-62
2022/03/27 05:16:41;;;;;;;36.77;22.57;;;8.50;99.90;;;;;;5053805;28;20194;-62
2022/03/27 05:19:07;;;;;;;37.13;22.37;;;8.60;99.90;;;;;;5054084;28;20181;-62
2022/03/27 05:21:33;;;;;;;31.17;20.73;;;8.60;99.90;;;;;;5054052;28;20167;-63
2022/03/27 05:24:01;;;;;;;38.03;22.60;;;8.60;99.90;;;;;;5054281;28;20654;-62
2022/03/27 05:26:27;;;;;;;39.87;24.73;;;8.60;99.90;;;;;;5061239;28;20288;-62
2022/03/27 05:28:54;;;;;;;40.17;23.57;;;8.60;99.90;;;;;;5055416;28;20190;-62
2022/03/27 05:31:20;;;;;;;34.50;22.07;;;8.70;99.90;;;;;;5053831;28;20213;-62
2022/03/27 05:33:46;;;;;;;37.93;23.90;;;8.70;99.90;;;;;;5053676;28;20254;-63
2022/03/27 05:36:12;;;;;;;39.40;23.77;;;8.70;99.90;;;;;;5053708;28;20191;-62
2022/03/27 05:38:38;;;;;;;34.83;22.93;;;8.70;99.90;;;;;;5054328;28;20181;-62
2022/03/27 05:41:06;;;;;;;38.10;23.90;;;8.70;99.90;;;;;;5053793;28;20179;-62
2022/03/27 05:43:31;;;;;;;36.83;23.63;;;8.70;99.90;;;;;;5053703;28;20202;-62
2022/03/27 05:45:57;;;;;;;40.03;24.27;;;8.70;99.90;;;;;;5053555;28;20245;-62
2022/03/27 05:48:23;;;;;;;39.73;24.17;;;8.70;99.90;;;;;;5053337;28;20662;-63
2022/03/27 05:50:49;;;;;;;34.43;24.63;;;8.70;99.90;;;;;;5053479;28;20209;-62
2022/03/27 05:53:15;;;;;;;35.97;25.00;;;8.70;99.90;;;;;;5053413;28;20181;-63
2022/03/27 05:55:41;;;;;;;39.40;25.10;;;8.70;99.90;;;;;;5054291;28;20186;-62
2022/03/27 05:58:08;;;;;;;35.73;24.53;;;8.70;99.90;;;;;;5061163;28;20187;-63
2022/03/27 06:00:34;;;;;;;35.20;23.77;;;8.70;99.90;;;;;;5053472;28;20619;-62
2022/03/27 06:03:00;;;;;;;43.27;25.60;;;8.70;99.90;;;;;;5053019;28;20170;-62
2022/03/27 06:05:26;;;;;;;40.80;25.73;;;8.70;99.90;;;;;;5053912;28;20224;-62
2022/03/27 06:07:54;;;;;;;36.90;25.37;;;8.70;99.90;;;;;;5053320;28;20178;-62
2022/03/27 06:10:31;;;;;;;37.37;24.57;;;8.70;99.90;;;;;;5053011;28;20194;-62
2022/03/27 06:13:02;;;;;;;37.30;24.20;;;8.80;99.90;;;;;;5053584;28;20189;-62
2022/03/27 06:15:29;;;;;;;35.17;24.43;;;8.80;99.90;;;;;;5053941;28;20190;-62
2022/03/27 06:17:56;;;;;;;33.77;23.53;;;8.80;99.90;;;;;;5053455;28;20171;-62
2022/03/27 06:20:24;;;;;;;40.30;24.60;;;8.80;99.90;;;;;;5053177;28;20174;-62
2022/03/27 06:22:50;;;;;;;40.77;24.77;;;8.80;99.90;;;;;;5053559;28;20224;-62
2022/03/27 06:25:19;;;;;;;35.97;23.70;;;8.80;99.90;;;;;;5051769;28;20658;-62
2022/03/27 06:27:45;;;;;;;35.67;22.50;;;8.80;99.90;;;;;;5061833;28;20187;-63
2022/03/27 06:30:15;;;;;;;36.13;23.63;;;8.80;99.90;;;;;;5053127;28;20177;-63
2022/03/27 06:32:42;;;;;;;38.53;23.90;;;8.80;99.90;;;;;;5053384;28;20174;-63
2022/03/27 06:35:11;;;;;;;32.50;21.57;;;8.80;99.90;;;;;;5053184;28;20167;-62
2022/03/27 06:37:38;;;;;;;31.00;20.23;;;8.90;99.90;;;;;;5053325;28;20216;-62
2022/03/27 06:40:05;;;;;;;34.13;21.77;;;8.90;99.90;;;;;;5053007;28;20539;-62
2022/03/27 06:42:31;;;;;;;35.00;21.17;;;8.90;99.90;;;;;;5052912;28;20175;-62
2022/03/27 06:44:57;;;;;;;32.30;21.43;;;8.90;99.90;;;;;;5053026;28;20182;-62
2022/03/27 06:47:26;;;;;;;33.77;20.80;;;9.00;99.90;;;;;;5052677;28;20194;-62
2022/03/27 06:49:53;;;;;;;33.80;22.50;;;8.90;99.90;;;;;;5053182;28;20175;-62
2022/03/27 06:52:20;;;;;;;34.47;20.40;;;8.90;99.90;;;;;;5051623;28;20581;-62
2022/03/27 06:54:46;;;;;;;31.90;19.90;;;8.90;99.90;;;;;;5052847;28;20178;-62
2022/03/27 06:57:14;;;;;;;37.43;21.23;;;8.90;99.90;;;;;;5061373;28;20205;-62
2022/03/27 07:05:09;;;;;;;29.00;19.07;;;9.00;99.90;;;;;;5052980;28;20649;-62
2022/03/27 07:07:36;;;;;;;33.77;19.73;;;9.10;99.90;;;;;;5052913;28;20201;-63
2022/03/27 07:10:03;;;;;;;27.17;19.07;;;9.20;99.90;;;;;;5052729;28;20244;-63
2022/03/27 07:12:29;;;;;;;31.03;19.27;;;9.20;99.90;;;;;;5052575;28;20210;-62
2022/03/27 07:14:54;;;;;;;32.57;19.83;;;9.20;99.90;;;;;;5055614;28;20175;-62
2022/03/27 07:17:20;;;;;;;36.80;20.17;;;9.30;99.90;;;;;;5056229;28;20567;-62
2022/03/27 07:19:46;;;;;;;28.33;19.23;;;9.30;99.90;;;;;;5056952;28;20659;-61
2022/03/27 07:22:12;;;;;;;32.47;19.70;;;9.30;99.90;;;;;;5056729;28;20228;-63
2022/03/27 07:24:38;;;;;;;27.00;17.80;;;9.30;99.90;;;;;;5056654;28;20186;-62
2022/03/27 07:27:04;;;;;;;30.60;19.27;;;9.30;99.90;;;;;;5065005;28;20209;-62
2022/03/27 07:29:35;;;;;;;33.07;19.10;;;9.30;99.90;;;;;;5056277;28;20654;-63
2022/03/27 07:32:01;;;;;;;29.57;18.83;;;9.30;99.90;;;;;;5056385;28;20191;-62
2022/03/27 07:34:27;;;;;;;25.73;18.77;;;9.40;99.90;;;;;;5056219;28;20166;-63
2022/03/27 07:36:53;;;;;;;27.13;18.20;;;9.40;99.90;;;;;;5054765;28;20616;-62
2022/03/27 07:39:21;;;;;;;31.00;18.93;;;9.40;99.90;;;;;;5054975;28;20232;-62
2022/03/27 07:41:47;;;;;;;31.53;18.60;;;9.50;99.90;;;;;;5056229;28;20265;-63
2022/03/27 07:44:13;;;;;;;31.40;18.80;;;9.60;99.90;;;;;;5056219;28;20221;-62
2022/03/27 07:46:38;;;;;;;29.53;18.47;;;9.60;99.90;;;;;;5054513;28;20238;-63
2022/03/27 07:49:04;;;;;;;33.57;21.33;;;9.60;99.90;;;;;;5055675;28;20201;-62
2022/03/27 07:51:30;;;;;;;28.13;18.03;;;9.60;99.90;;;;;;5055796;28;20209;-62
2022/03/27 07:53:56;;;;;;;32.53;20.13;;;9.70;99.90;;;;;;5056122;28;20170;-62
2022/03/27 07:56:21;;;;;;;29.60;19.43;;;9.80;99.90;;;;;;5062221;28;20291;-63
2022/03/27 07:58:47;;;;;;;35.50;20.03;;;9.90;99.90;;;;;;5057980;28;20182;-63
2022/03/27 08:01:15;;;;;;;31.60;19.60;;;10.00;99.90;;;;;;5055982;28;20174;-63
2022/03/27 08:03:44;;;;;;;31.20;19.03;;;10.00;99.90;;;;;;5055410;28;20213;-63
2022/03/27 08:06:10;;;;;;;31.73;19.47;;;10.10;99.90;;;;;;5055794;28;20198;-65
2022/03/27 08:08:36;;;;;;;32.73;19.60;;;10.20;99.90;;;;;;5056061;28;20186;-65
2022/03/27 08:11:02;;;;;;;30.37;19.93;;;10.30;99.90;;;;;;5055657;28;20256;-63
2022/03/27 08:13:28;;;;;;;30.10;19.00;;;10.40;99.90;;;;;;5055533;28;20265;-63
2022/03/27 08:15:54;;;;;;;30.73;20.40;;;10.40;99.90;;;;;;5055658;28;20198;-62
2022/03/27 08:18:20;;;;;;;33.87;19.77;;;10.40;99.90;;;;;;5055296;28;20174;-62
2022/03/27 08:20:46;;;;;;;30.83;20.10;;;10.50;99.90;;;;;;5055329;28;20175;-63
2022/03/27 08:23:12;;;;;;;31.83;19.70;;;10.60;99.90;;;;;;5055287;28;20551;-63
2022/03/27 08:28:22;;;;;;;33.63;20.27;;;10.70;99.90;;;;;;5060982;28;20193;-63
2022/03/27 08:30:48;;;;;;;32.63;20.40;;;10.70;99.90;;;;;;5055753;28;20198;-63
2022/03/27 08:33:15;;;;;;;31.00;19.90;;;10.70;99.90;;;;;;5054767;28;20647;-62
2022/03/27 08:35:42;;;;;;;29.57;20.47;;;10.80;99.90;;;;;;5054970;28;20193;-63
2022/03/27 08:38:17;;;;;;;30.97;20.33;;;10.70;99.90;;;;;;5053677;28;20185;-63
2022/03/27 08:40:44;;;;;;;30.00;19.90;;;10.80;99.90;;;;;;5054936;28;20158;-63
2022/03/27 08:43:15;;;;;;;32.30;20.57;;;10.80;99.90;;;;;;5054839;28;20175;-62
2022/03/27 08:45:42;;;;;;;31.70;20.27;;;10.80;99.90;;;;;;5054782;28;20252;-63
2022/03/27 08:48:08;;;;;;;32.17;20.83;;;10.90;99.90;;;;;;5054666;28;20163;-62
2022/03/27 08:50:59;;;;;;;29.00;20.33;;;10.90;99.90;;;;;;5054531;28;20252;-63
2022/03/27 08:53:38;;;;;;;31.63;20.60;;;11.00;99.90;;;;;;5054979;28;20167;-62
2022/03/27 08:56:08;;;;;;;28.23;18.93;;;11.00;99.90;;;;;;5058525;28;20262;-63
2022/03/27 08:58:35;;;;;;;30.40;20.07;;;11.20;99.90;;;;;;5058626;28;20270;-63
2022/03/27 09:01:01;;;;;;;27.60;19.63;;;11.30;99.90;;;;;;5054797;28;20167;-62
2022/03/27 09:03:27;;;;;;;28.77;20.13;;;11.30;99.90;;;;;;5054294;28;20174;-63
2022/03/27 09:05:53;;;;;;;31.13;20.53;;;11.30;99.90;;;;;;5054493;28;20203;-64
2022/03/27 09:08:19;;;;;;;27.43;19.53;;;11.40;99.90;;;;;;5054642;28;20166;-62
2022/03/27 09:10:45;;;;;;;28.67;19.43;;;11.40;99.90;;;;;;5054339;28;20293;-63
2022/03/27 09:13:20;;;;;;;27.60;18.70;;;11.40;99.90;;;;;;5054204;28;20181;-62
2022/03/27 09:16:07;;;;;;;30.70;20.67;;;11.50;99.90;;;;;;5054425;28;20209;-63
2022/03/27 09:19:01;;;;;;;28.80;19.53;;;11.60;99.90;;;;;;5053411;28;20629;-63
2022/03/27 09:21:28;;;;;;;30.07;19.23;;;11.50;99.90;;;;;;5054040;28;20189;-63
2022/03/27 09:24:00;;;;;;;30.67;18.83;;;11.50;99.90;;;;;;5052868;28;20557;-62
2022/03/27 09:26:27;;;;;;;29.57;19.37;;;11.50;99.90;;;;;;5060997;28;20204;-62
2022/03/27 09:29:13;;;;;;;31.00;19.80;;;11.40;99.90;;;;;;5055506;28;20194;-63
2022/03/27 09:31:39;;;;;;;30.00;19.67;;;11.60;99.90;;;;;;5054486;28;20241;-62
2022/03/27 09:34:07;;;;;;;27.07;17.73;;;11.60;99.90;;;;;;5053653;28;20179;-62
2022/03/27 09:36:40;;;;;;;27.57;17.53;;;11.70;99.90;;;;;;5053803;28;20186;-61
2022/03/27 09:39:17;;;;;;;29.27;18.77;;;11.70;99.90;;;;;;5054091;28;20166;-62
2022/03/27 09:42:01;;;;;;;25.33;17.63;;;11.70;99.90;;;;;;5053750;28;20171;-62
2022/03/27 09:44:31;;;;;;;25.60;18.30;;;11.70;99.90;;;;;;5053850;28;20165;-63
2022/03/27 09:47:00;;;;;;;26.48;18.02;;;11.80;99.90;;;;;;5053700;28;20228;-62
2022/03/27 09:49:31;;;;;;;29.00;19.52;;;11.80;99.90;;;;;;5053610;28;20166;-62
2022/03/27 09:52:05;;;;;;;26.93;17.60;;;11.90;99.90;;;;;;5053566;28;20191;-63
2022/03/27 09:54:46;;;;;;;28.42;17.60;;;12.00;99.90;;;;;;5053880;28;20150;-62
2022/03/27 09:57:38;;;;;;;24.95;17.00;;;12.10;99.90;;;;;;5062067;28;20202;-62
2022/03/27 10:00:19;;;;;;;25.33;17.92;;;12.10;99.90;;;;;;5053840;28;20209;-61
2022/03/27 10:02:49;;;;;;;24.17;16.58;;;12.10;99.90;;;;;;5053198;28;20173;-62
2022/03/27 10:05:21;;;;;;;22.10;15.45;;;12.20;99.90;;;;;;5053272;28;20177;-61
2022/03/27 10:07:56;;;;;;;23.63;16.10;;;12.30;99.90;;;;;;5053695;28;20158;-62
2022/03/27 10:10:26;;;;;;;21.50;15.43;;;12.30;99.90;;;;;;5053725;28;20181;-62
2022/03/27 10:12:54;;;;;;;24.27;15.35;;;12.30;99.90;;;;;;5053536;28;20182;-62
2022/03/27 10:15:22;;;;;;;22.92;15.38;;;12.30;99.90;;;;;;5052980;28;20202;-62
2022/03/27 10:18:05;;;;;;;24.08;16.27;;;12.30;99.90;;;;;;5052999;28;20174;-62
2022/03/27 10:20:35;;;;;;;24.20;16.55;;;12.20;99.90;;;;;;5053467;28;20522;-62
2022/03/27 10:23:07;;;;;;;22.77;15.30;;;12.20;99.90;;;;;;5053381;28;20600;-62
2022/03/27 10:25:52;;;;;;;21.40;14.65;;;12.20;99.90;;;;;;5052975;28;20190;-62
2022/03/27 10:28:20;;;;;;;16.75;11.82;;;12.20;99.90;;;;;;5066834;28;20178;-62
2022/03/27 10:30:49;;;;;;;17.13;12.23;;;12.20;99.90;;;;;;5073107;28;20567;-62
2022/03/27 10:33:15;;;;;;;15.82;12.32;;;12.30;99.90;;;;;;5072813;28;20653;-61
2022/03/27 10:36:02;;;;;;;15.57;11.20;;;12.30;99.90;;;;;;5073206;28;20194;-64
2022/03/27 10:38:38;;;;;;;11.20;8.43;;;12.30;99.90;;;;;;5073385;28;20170;-62
2022/03/27 10:41:13;;;;;;;11.50;8.93;;;12.40;99.90;;;;;;5073388;28;20154;-62
2022/03/27 10:43:48;;;;;;;18.33;12.93;;;12.40;99.90;;;;;;5074139;28;20575;-62
2022/03/27 10:46:18;;;;;;;17.90;11.50;;;12.40;99.90;;;;;;5073176;28;20193;-63
2022/03/27 10:48:45;;;;;;;18.88;11.88;;;12.40;99.90;;;;;;5075512;28;20619;-62
2022/03/27 10:51:27;;;;;;;16.23;12.23;;;12.50;99.90;;;;;;5077257;28;20243;-62
2022/03/27 10:54:18;;;;;;;20.52;12.57;;;12.60;99.90;;;;;;5076858;28;20201;-62
2022/03/27 10:56:49;;;;;;;16.25;11.18;;;12.70;99.90;;;;;;5064016;28;20348;-62
2022/03/27 10:59:23;;;;;;;17.30;12.07;;;12.80;99.90;;;;;;5077136;28;20169;-62
2022/03/27 11:01:56;;;;;;;18.15;12.68;;;12.90;99.90;;;;;;5077030;28;20238;-62
2022/03/27 11:04:37;;;;;;;21.20;13.02;;;13.00;99.90;;;;;;5076370;28;20177;-66
2022/03/27 11:07:15;;;;;;;19.95;13.13;;;13.10;99.90;;;;;;5075236;28;20198;-62
2022/03/27 11:09:45;;;;;;;17.10;11.85;;;13.20;99.90;;;;;;5075149;28;20196;-62
2022/03/27 11:12:24;;;;;;;17.50;13.00;;;13.30;99.90;;;;;;5076365;28;20217;-61
2022/03/27 11:14:52;;;;;;;17.50;12.88;;;13.40;99.90;;;;;;5075602;28;20165;-61
2022/03/27 11:17:49;;;;;;;18.83;13.20;;;13.40;99.90;;;;;;5075217;28;20196;-62
2022/03/27 11:20:21;;;;;;;18.52;12.98;;;13.50;99.90;;;;;;5076984;28;20170;-65
2022/03/27 11:22:58;;;;;;;16.67;12.65;;;13.60;99.90;;;;;;5076898;28;20166;-66
2022/03/27 11:25:38;;;;;;;18.42;12.60;;;13.50;99.90;;;;;;5076396;28;20228;-66
2022/03/27 11:28:06;;;;;;;17.98;12.82;;;13.50;99.90;;;;;;5068138;28;20185;-67
2022/03/27 11:30:55;;;;;;;22.02;15.02;;;13.60;99.90;;;;;;5076096;28;20174;-67
2022/03/27 11:33:29;;;;;;;18.60;13.65;;;13.70;99.90;;;;;;5075390;28;20239;-69
2022/03/27 11:36:09;;;;;;;18.65;13.13;;;13.90;99.90;;;;;;5074834;28;20250;-68
2022/03/27 11:39:02;;;;;;;18.52;13.50;;;14.40;99.90;;;;;;5074869;28;20180;-68
2022/03/27 11:41:42;;;;;;;19.48;13.77;;;14.60;99.90;;;;;;5076477;28;20162;-67
2022/03/27 11:45:06;;;;;;;16.88;12.45;;;15.00;99.90;;;;;;5075964;28;20245;-67
2022/03/27 11:47:22;;;;;;;18.10;13.35;;;15.60;99.90;;;;;;5075736;28;20335;-67
2022/03/27 11:49:50;;;;;;;27.55;15.63;;;15.90;99.90;;;;;;5075584;28;20716;-67
2022/03/27 11:52:21;;;;;;;16.15;12.10;;;16.20;99.90;;;;;;5076231;28;20190;-67
2022/03/27 11:54:47;;;;;;;16.88;12.52;;;16.40;99.90;;;;;;5076104;28;20534;-67
2022/03/27 11:57:15;;;;;;;18.45;12.70;;;16.60;99.90;;;;;;5060879;28;20202;-67
2022/03/27 11:59:46;;;;;;;18.38;12.65;;;16.80;99.90;;;;;;5055146;28;20182;-67
2022/03/27 12:02:12;;;;;;;18.25;13.43;;;17.00;99.90;;;;;;5055738;28;20529;-67
2022/03/27 12:04:53;;;;;;;19.55;13.10;;;16.90;99.90;;;;;;5055352;28;20640;-67
2022/03/27 12:07:21;;;;;;;16.55;12.38;;;17.10;99.90;;;;;;5055491;28;20275;-67
2022/03/27 12:09:56;;;;;;;16.33;12.30;;;17.40;99.90;;;;;;5055367;28;20193;-68
2022/03/27 12:12:22;;;;;;;17.52;13.05;;;17.60;99.90;;;;;;5054105;28;20293;-66
2022/03/27 12:14:55;;;;;;;16.00;12.10;;;17.70;99.90;;;;;;5055523;28;20194;-67
2022/03/27 12:17:26;;;;;;;15.82;11.77;;;17.80;99.90;;;;;;5055376;28;20194;-66
2022/03/27 12:20:05;;;;;;;15.75;12.18;;;18.10;99.90;;;;;;5055167;28;20603;-67
2022/03/27 12:22:46;;;;;;;17.02;12.38;;;18.40;99.90;;;;;;5054040;28;20174;-67
2022/03/27 12:25:15;;;;;;;16.10;12.38;;;18.50;99.90;;;;;;5055766;28;20159;-67
2022/03/27 12:30:36;;;;;;;15.88;11.93;;;18.50;99.90;;;;;;5075901;28;20174;-67
2022/03/27 12:33:05;;;;;;;16.85;12.43;;;18.70;99.90;;;;;;5073988;28;20608;-67
2022/03/27 12:35:33;;;;;;;15.63;12.15;;;18.80;99.90;;;;;;5075591;28;20193;-66
2022/03/27 12:37:59;;;;;;;18.50;12.43;;;19.00;99.90;;;;;;5073990;28;20546;-67
2022/03/27 12:40:26;;;;;;;16.25;12.13;;;19.00;99.90;;;;;;5075375;28;20162;-67
2022/03/27 12:42:54;;;;;;;15.93;11.88;;;19.00;99.90;;;;;;5075360;28;20162;-67
2022/03/27 12:45:26;;;;;;;17.00;12.50;;;19.40;99.90;;;;;;5075346;28;20170;-67
2022/03/27 12:47:58;;;;;;;16.65;12.15;;;19.60;99.90;;;;;;5075032;28;20254;-67
2022/03/27 12:50:34;;;;;;;15.13;11.68;;;19.90;99.90;;;;;;5074768;28;20257;-67
2022/03/27 12:53:05;;;;;;;14.85;11.98;;;20.30;99.90;;;;;;5073402;28;20664;-67
2022/03/27 12:55:43;;;;;;;16.58;13.10;;;20.30;99.90;;;;;;5074863;28;20280;-67